Time;durP1;ratioP1;P1;durP2;ratioP2;P2;SDS_P1;SDS_P2;PMS_P1;PMS_P2;Temp;Humidity;BMP_temperature;BMP_pressure;BME280_temperature;BME280_humidity;BME280_pressure;Samples;Min_cycle;Max_cycle;Signal;HPM_P1;HPM_P2
2022/11/01 00:01:29;;;;;;;4.60;3.00;;;;;;;;;;5002737;28;20179;-77
2022/11/01 00:03:55;;;;;;;8.40;4.00;;;;;;;;;;5010479;28;20180;-76
2022/11/01 00:06:20;;;;;;;3.23;2.63;;;;;;;;;;5009251;28;20267;-76
2022/11/01 00:08:46;;;;;;;7.47;3.40;;;;;;;;;;4996028;28;20189;-77
2022/11/01 00:11:13;;;;;;;5.47;2.73;;;;;;;;;;4996723;28;20180;-76
2022/11/01 00:13:38;;;;;;;9.60;3.10;;;;;;;;;;4999754;28;20287;-76
2022/11/01 00:16:04;;;;;;;6.53;2.97;;;;;;;;;;4995260;28;20210;-77
2022/11/01 00:18:29;;;;;;;8.10;3.40;;;;;;;;;;5011231;28;20184;-77
2022/11/01 00:20:54;;;;;;;9.03;3.20;;;;;;;;;;4994939;28;20177;-76
2022/11/01 00:23:20;;;;;;;7.53;3.67;;;;;;;;;;4995699;28;20274;-76
2022/11/01 00:25:45;;;;;;;6.20;3.00;;;;;;;;;;5011167;28;20189;-76
2022/11/01 00:28:10;;;;;;;10.67;3.07;;;;;;;;;;4992315;28;20299;-77
2022/11/01 00:30:36;;;;;;;6.43;3.30;;;;;;;;;;4995114;28;20295;-77
2022/11/01 00:33:02;;;;;;;9.90;3.77;;;;;;;;;;5013927;28;20173;-77
2022/11/01 00:35:27;;;;;;;8.47;3.77;;;;;;;;;;5017392;28;20191;-77
2022/11/01 00:37:52;;;;;;;7.87;3.67;;;;;;;;;;5009392;28;20186;-77
2022/11/01 00:40:18;;;;;;;6.13;3.23;;;;;;;;;;5023161;28;20237;-77
2022/11/01 00:42:43;;;;;;;10.03;4.33;;;;;;;;;;5016500;28;20214;-77
2022/11/01 00:45:08;;;;;;;7.37;3.70;;;;;;;;;;5011202;28;20180;-77
2022/11/01 00:47:33;;;;;;;8.73;3.67;;;;;;;;;;5013834;28;20183;-77
2022/11/01 00:49:59;;;;;;;8.87;3.70;;;;;;;;;;5011472;28;20200;-76
2022/11/01 00:52:24;;;;;;;9.90;3.33;;;;;;;;;;5037159;28;20480;-76
2022/11/01 00:54:49;;;;;;;9.00;3.40;;;;;;;;;;5031699;28;21195;-76
2022/11/01 00:57:14;;;;;;;11.47;3.50;;;;;;;;;;5011758;28;20273;-77
2022/11/01 00:59:40;;;;;;;9.27;3.27;;;;;;;;;;5017529;28;20237;-76
2022/11/01 01:02:05;;;;;;;8.93;3.83;;;;;;;;;;5017388;28;20253;-77
2022/11/01 01:04:30;;;;;;;7.80;3.50;;;;;;;;;;5031762;28;20204;-77
2022/11/01 01:06:55;;;;;;;11.70;4.27;;;;;;;;;;5014508;28;20180;-77
2022/11/01 01:09:20;;;;;;;7.40;3.90;;;;;;;;;;5014152;28;20216;-76
2022/11/01 01:11:46;;;;;;;8.63;3.30;;;;;;;;;;5035966;28;20175;-76
2022/11/01 01:14:11;;;;;;;9.97;4.43;;;;;;;;;;5005622;28;20198;-77
2022/11/01 01:16:36;;;;;;;7.60;3.70;;;;;;;;;;5021827;28;20183;-77
2022/11/01 01:19:01;;;;;;;9.80;3.47;;;;;;;;;;5011512;28;20240;-77
2022/11/01 01:21:27;;;;;;;6.10;3.57;;;;;;;;;;5013166;28;20188;-76
2022/11/01 01:23:53;;;;;;;11.13;3.97;;;;;;;;;;5009907;28;20172;-76
2022/11/01 01:26:19;;;;;;;5.67;3.17;;;;;;;;;;5026702;28;20242;-76
2022/11/01 01:28:44;;;;;;;4.63;3.13;;;;;;;;;;5011425;28;20204;-76
2022/11/01 01:31:10;;;;;;;10.87;4.33;;;;;;;;;;5014896;28;20295;-76
2022/11/01 01:33:35;;;;;;;5.93;3.67;;;;;;;;;;5010229;28;20220;-76
2022/11/01 01:36:01;;;;;;;6.63;3.30;;;;;;;;;;4988221;28;20173;-76
2022/11/01 01:38:26;;;;;;;6.60;3.60;;;;;;;;;;4994118;28;20181;-76
2022/11/01 01:40:51;;;;;;;8.83;3.60;;;;;;;;;;5012874;28;20180;-76
2022/11/01 01:43:16;;;;;;;11.27;3.40;;;;;;;;;;4992528;28;20218;-77
2022/11/01 01:45:42;;;;;;;6.83;3.47;;;;;;;;;;5009670;28;20176;-76
2022/11/01 01:48:16;;;;;;;10.70;3.97;;;;;;;;;;4993254;28;20185;-77
2022/11/01 01:50:44;;;;;;;7.53;3.30;;;;;;;;;;4997097;28;20214;-77
2022/11/01 01:53:12;;;;;;;4.90;3.50;;;;;;;;;;4993223;28;20190;-77
2022/11/01 01:55:44;;;;;;;8.43;3.17;;;;;;;;;;4994331;28;20186;-77
2022/11/01 01:58:10;;;;;;;7.10;3.10;;;;;;;;;;4988186;28;20177;-77
2022/11/01 02:00:36;;;;;;;11.57;3.90;;;;;;;;;;4993202;28;20188;-77
2022/11/01 02:03:02;;;;;;;8.07;3.60;;;;;;;;;;5015931;28;20180;-77
2022/11/01 02:05:46;;;;;;;8.73;3.73;;;;;;;;;;5007020;28;20283;-77
2022/11/01 02:08:11;;;;;;;12.30;4.13;;;;;;;;;;4992598;28;20176;-77
2022/11/01 02:10:37;;;;;;;9.93;3.57;;;;;;;;;;4993327;28;20204;-77
2022/11/01 02:13:09;;;;;;;15.43;4.27;;;;;;;;;;4990632;28;20176;-77
2022/11/01 02:15:39;;;;;;;9.23;4.70;;;;;;;;;;4986440;28;20191;-77
2022/11/01 02:18:07;;;;;;;8.83;4.23;;;;;;;;;;4993392;28;20172;-77
2022/11/01 02:20:44;;;;;;;9.77;3.87;;;;;;;;;;4994914;28;20180;-77
2022/11/01 02:23:45;;;;;;;9.23;3.67;;;;;;;;;;5006277;28;20180;-77
2022/11/01 02:26:10;;;;;;;9.80;4.33;;;;;;;;;;4915944;29;20395;-76
2022/11/01 02:28:38;;;;;;;7.33;3.90;;;;;;;;;;4910044;29;20232;-77
2022/11/01 02:31:12;;;;;;;8.53;3.73;;;;;;;;;;4911230;29;20333;-76
2022/11/01 02:33:47;;;;;;;9.50;4.23;;;;;;;;;;4917955;29;20222;-77
2022/11/01 02:36:12;;;;;;;9.03;3.80;;;;;;;;;;4927979;29;20204;-77
2022/11/01 02:39:02;;;;;;;6.03;3.33;;;;;;;;;;4930365;29;20215;-77
2022/11/01 02:41:38;;;;;;;5.50;3.63;;;;;;;;;;4929497;29;20194;-77
2022/11/01 02:44:09;;;;;;;11.17;4.23;;;;;;;;;;4927207;29;20278;-76
2022/11/01 02:47:00;;;;;;;7.63;3.67;;;;;;;;;;4916890;29;20266;-77
2022/11/01 02:49:27;;;;;;;6.63;4.00;;;;;;;;;;4928213;29;21623;-76
2022/11/01 02:51:54;;;;;;;6.80;3.67;;;;;;;;;;4934421;29;20174;-76
2022/11/01 02:54:22;;;;;;;11.87;4.63;;;;;;;;;;4912282;29;20195;-77
2022/11/01 02:56:48;;;;;;;8.70;4.63;;;;;;;;;;4911865;29;20274;-77
2022/11/01 02:59:22;;;;;;;8.17;4.00;;;;;;;;;;4935383;28;20203;-77
2022/11/01 03:01:50;;;;;;;5.80;3.60;;;;;;;;;;4999368;28;20176;-77
2022/11/01 03:04:15;;;;;;;7.60;4.23;;;;;;;;;;4993165;28;20260;-76
2022/11/01 03:06:45;;;;;;;8.27;3.97;;;;;;;;;;4995173;28;20231;-77
2022/11/01 03:09:10;;;;;;;8.90;4.50;;;;;;;;;;4989105;28;20227;-77
2022/11/01 03:11:48;;;;;;;6.40;4.10;;;;;;;;;;4992759;28;20178;-77
2022/11/01 03:14:16;;;;;;;8.40;4.33;;;;;;;;;;4996512;28;20187;-77
2022/11/01 03:16:59;;;;;;;10.07;4.00;;;;;;;;;;4989012;28;20204;-76
2022/11/01 03:19:30;;;;;;;8.00;4.10;;;;;;;;;;5008365;28;20196;-76
2022/11/01 03:22:14;;;;;;;7.43;4.33;;;;;;;;;;4994198;28;20279;-76
2022/11/01 03:24:49;;;;;;;10.23;4.10;;;;;;;;;;4993440;28;20189;-77
2022/11/01 03:27:23;;;;;;;6.17;3.90;;;;;;;;;;4992687;28;20196;-77
2022/11/01 03:29:57;;;;;;;10.60;4.00;;;;;;;;;;4992306;28;20212;-76
2022/11/01 03:32:26;;;;;;;7.80;3.73;;;;;;;;;;4993762;28;20232;-76
2022/11/01 03:34:51;;;;;;;10.23;4.77;;;;;;;;;;5034826;28;20313;-77
2022/11/01 03:37:19;;;;;;;10.47;4.00;;;;;;;;;;5017304;28;20306;-77
2022/11/01 03:39:45;;;;;;;8.43;4.07;;;;;;;;;;5014532;28;20214;-77
2022/11/01 03:42:13;;;;;;;10.50;3.80;;;;;;;;;;5017439;28;20186;-77
2022/11/01 03:44:40;;;;;;;8.73;3.17;;;;;;;;;;5019358;28;20182;-76
2022/11/01 03:47:06;;;;;;;9.17;3.43;;;;;;;;;;5020949;28;20252;-77
2022/11/01 03:49:31;;;;;;;7.83;3.53;;;;;;;;;;5030152;28;20325;-77
2022/11/01 03:51:56;;;;;;;7.40;3.07;;;;;;;;;;5025837;28;20191;-76
2022/11/01 03:54:22;;;;;;;5.40;2.90;;;;;;;;;;5036194;28;20178;-77
2022/11/01 03:56:47;;;;;;;6.83;3.87;;;;;;;;;;5016529;28;20190;-77
2022/11/01 03:59:12;;;;;;;2.87;2.53;;;;;;;;;;5012669;28;20214;-76
2022/11/01 04:01:37;;;;;;;4.40;3.07;;;;;;;;;;5034006;28;20177;-76
2022/11/01 04:04:03;;;;;;;6.40;2.77;;;;;;;;;;5031470;28;20178;-77
2022/11/01 04:06:28;;;;;;;5.43;2.87;;;;;;;;;;5029746;28;20179;-76
2022/11/01 04:08:53;;;;;;;5.43;2.73;;;;;;;;;;5015353;28;20183;-77
2022/11/01 04:11:18;;;;;;;4.97;2.40;;;;;;;;;;5007830;28;20177;-77
2022/11/01 04:13:45;;;;;;;5.53;2.20;;;;;;;;;;5032088;28;20190;-77
2022/11/01 04:21:38;;;;;;;3.90;2.00;;;;;;;;;;5026328;28;20217;-77
2022/11/01 04:24:04;;;;;;;2.57;2.10;;;;;;;;;;5034901;28;20191;-77
2022/11/01 04:26:29;;;;;;;2.77;1.80;;;;;;;;;;5030517;28;20183;-76
2022/11/01 04:28:57;;;;;;;2.13;1.67;;;;;;;;;;5015191;28;20199;-77
2022/11/01 04:31:27;;;;;;;4.83;2.33;;;;;;;;;;5009713;28;20175;-77
2022/11/01 04:33:52;;;;;;;2.60;1.77;;;;;;;;;;5020965;28;20247;-77
2022/11/01 04:36:18;;;;;;;2.23;2.03;;;;;;;;;;4992828;28;20219;-77
2022/11/01 04:38:43;;;;;;;2.27;1.80;;;;;;;;;;4996441;28;20214;-76
2022/11/01 04:41:08;;;;;;;2.93;1.80;;;;;;;;;;4994231;28;20179;-77
2022/11/01 04:43:33;;;;;;;3.13;1.73;;;;;;;;;;4997032;28;20184;-77
2022/11/01 04:45:59;;;;;;;3.10;1.63;;;;;;;;;;4995247;28;20187;-76
2022/11/01 04:48:25;;;;;;;3.30;1.77;;;;;;;;;;4998164;28;20191;-77
2022/11/01 04:50:50;;;;;;;3.50;1.83;;;;;;;;;;4993363;28;20203;-76
2022/11/01 04:53:15;;;;;;;1.30;1.20;;;;;;;;;;4991149;28;20181;-77
2022/11/01 04:55:40;;;;;;;1.70;1.53;;;;;;;;;;5002992;28;20200;-77
2022/11/01 04:58:06;;;;;;;2.17;1.57;;;;;;;;;;4996860;28;20175;-77
2022/11/01 05:00:32;;;;;;;2.07;1.57;;;;;;;;;;5013778;28;20179;-76
2022/11/01 05:03:04;;;;;;;2.43;1.63;;;;;;;;;;4994425;28;20187;-77
2022/11/01 05:05:30;;;;;;;1.70;1.50;;;;;;;;;;5004838;28;20193;-76
2022/11/01 05:08:13;;;;;;;1.97;1.77;;;;;;;;;;4993458;28;20218;-77
2022/11/01 05:10:40;;;;;;;1.40;1.30;;;;;;;;;;5016522;28;20258;-76
2022/11/01 05:13:05;;;;;;;2.30;1.60;;;;;;;;;;5007864;28;20264;-76
2022/11/01 05:15:31;;;;;;;2.17;1.30;;;;;;;;;;5000256;28;20226;-77
2022/11/01 05:17:56;;;;;;;2.97;1.33;;;;;;;;;;4994517;28;20181;-76
2022/11/01 05:20:21;;;;;;;1.90;1.50;;;;;;;;;;5012933;28;20179;-79
2022/11/01 05:22:47;;;;;;;1.87;1.60;;;;;;;;;;4997123;28;20266;-76
2022/11/01 05:25:13;;;;;;;1.40;1.23;;;;;;;;;;4993206;28;20311;-77
2022/11/01 05:27:38;;;;;;;2.60;1.20;;;;;;;;;;4997361;28;20179;-77
2022/11/01 05:30:04;;;;;;;2.93;1.53;;;;;;;;;;4993817;28;20238;-76
2022/11/01 05:32:30;;;;;;;1.70;1.60;;;;;;;;;;4997480;28;20202;-76
2022/11/01 05:34:55;;;;;;;1.40;1.30;;;;;;;;;;5014633;28;20216;-77
2022/11/01 05:37:20;;;;;;;1.10;1.00;;;;;;;;;;5050969;28;20175;-77
2022/11/01 05:39:45;;;;;;;3.67;1.47;;;;;;;;;;5033137;28;20186;-77
2022/11/01 05:42:11;;;;;;;1.30;1.20;;;;;;;;;;5034621;28;20185;-77
2022/11/01 05:44:36;;;;;;;1.50;1.40;;;;;;;;;;5034739;28;20188;-76
2022/11/01 05:47:03;;;;;;;1.33;1.23;;;;;;;;;;5034616;28;20188;-76
2022/11/01 05:49:28;;;;;;;1.30;1.20;;;;;;;;;;5049638;28;20250;-77
2022/11/01 05:51:53;;;;;;;1.60;1.50;;;;;;;;;;5034428;28;20181;-76
2022/11/01 05:54:18;;;;;;;2.53;1.03;;;;;;;;;;5031045;28;20204;-77
2022/11/01 05:56:43;;;;;;;2.73;1.23;;;;;;;;;;5032880;28;20197;-77
2022/11/01 05:59:09;;;;;;;1.50;1.40;;;;;;;;;;5042673;28;20180;-76
2022/11/01 06:01:34;;;;;;;1.50;1.40;;;;;;;;;;5051694;28;20183;-77
2022/11/01 06:04:00;;;;;;;1.30;1.10;;;;;;;;;;5053311;28;20273;-77
2022/11/01 06:06:27;;;;;;;1.20;1.10;;;;;;;;;;5032131;28;20192;-77
2022/11/01 06:08:52;;;;;;;2.53;1.20;;;;;;;;;;5035817;28;20261;-77
2022/11/01 06:11:17;;;;;;;1.90;1.20;;;;;;;;;;5056514;28;20292;-77
2022/11/01 06:13:42;;;;;;;1.20;1.10;;;;;;;;;;5031997;28;20174;-77
2022/11/01 06:16:08;;;;;;;1.70;1.33;;;;;;;;;;5034698;28;20176;-77
2022/11/01 06:18:33;;;;;;;1.00;0.90;;;;;;;;;;5034061;28;20221;-77
2022/11/01 06:20:58;;;;;;;1.07;1.03;;;;;;;;;;5054874;28;20186;-77
2022/11/01 06:23:24;;;;;;;1.63;1.20;;;;;;;;;;5048365;28;20185;-76
2022/11/01 06:25:49;;;;;;;3.13;1.10;;;;;;;;;;5033242;28;20177;-77
2022/11/01 06:28:14;;;;;;;1.20;1.10;;;;;;;;;;5054916;28;20212;-77
2022/11/01 06:30:40;;;;;;;1.10;1.00;;;;;;;;;;5053462;28;20292;-77
2022/11/01 06:33:05;;;;;;;1.30;1.20;;;;;;;;;;5026807;28;20182;-77
2022/11/01 06:35:31;;;;;;;1.03;0.80;;;;;;;;;;4991804;28;20183;-77
2022/11/01 06:38:00;;;;;;;1.40;1.30;;;;;;;;;;4994105;28;20205;-77
2022/11/01 06:40:26;;;;;;;1.57;1.10;;;;;;;;;;5009962;28;20190;-77
2022/11/01 06:42:51;;;;;;;1.17;1.13;;;;;;;;;;5009959;28;20185;-76
2022/11/01 06:45:16;;;;;;;1.20;1.10;;;;;;;;;;5009005;28;20185;-77
2022/11/01 06:47:45;;;;;;;1.67;0.97;;;;;;;;;;4991467;28;20179;-77
2022/11/01 06:50:10;;;;;;;0.70;0.70;;;;;;;;;;4988231;28;20209;-77
2022/11/01 06:52:35;;;;;;;1.07;0.97;;;;;;;;;;5010165;28;20258;-77
2022/11/01 06:55:00;;;;;;;1.00;0.80;;;;;;;;;;4995294;28;20194;-76
2022/11/01 06:57:25;;;;;;;1.43;1.00;;;;;;;;;;5007384;28;20194;-77
2022/11/01 06:59:51;;;;;;;1.00;0.70;;;;;;;;;;5006956;28;20179;-76
2022/11/01 07:02:16;;;;;;;1.43;0.80;;;;;;;;;;4993387;28;20191;-77
2022/11/01 07:04:41;;;;;;;0.60;0.60;;;;;;;;;;4991721;28;20197;-77
2022/11/01 07:07:06;;;;;;;0.60;0.60;;;;;;;;;;5017715;28;20256;-77
2022/11/01 07:09:33;;;;;;;0.70;0.70;;;;;;;;;;4991482;28;20209;-77
2022/11/01 07:11:58;;;;;;;0.60;0.60;;;;;;;;;;5000148;28;20218;-77
2022/11/01 07:14:23;;;;;;;0.70;0.70;;;;;;;;;;5014821;28;20216;-76
2022/11/01 07:16:48;;;;;;;0.70;0.70;;;;;;;;;;4994607;28;20182;-77
2022/11/01 07:19:14;;;;;;;0.70;0.70;;;;;;;;;;5003895;28;20190;-76
2022/11/01 07:21:39;;;;;;;0.73;0.73;;;;;;;;;;4989224;28;20205;-76
2022/11/01 07:24:04;;;;;;;1.13;1.03;;;;;;;;;;4994160;28;20174;-76
2022/11/01 07:26:30;;;;;;;1.23;1.13;;;;;;;;;;4999539;28;20258;-77
2022/11/01 07:28:55;;;;;;;0.97;0.97;;;;;;;;;;5006601;28;20204;-76
2022/11/01 07:31:20;;;;;;;0.70;0.70;;;;;;;;;;4994439;28;20206;-77
2022/11/01 07:33:45;;;;;;;0.80;0.80;;;;;;;;;;5000103;28;20241;-77
2022/11/01 07:36:10;;;;;;;1.20;0.73;;;;;;;;;;4991081;28;20182;-77
2022/11/01 07:38:37;;;;;;;1.10;1.00;;;;;;;;;;5000056;28;20187;-77
2022/11/01 07:41:03;;;;;;;0.77;0.67;;;;;;;;;;5000745;28;20205;-76
2022/11/01 07:43:28;;;;;;;0.80;0.80;;;;;;;;;;5023555;28;20178;-77
2022/11/01 07:45:56;;;;;;;1.10;1.00;;;;;;;;;;5012499;28;20187;-77
2022/11/01 07:48:22;;;;;;;1.00;0.90;;;;;;;;;;4997578;28;20198;-77
2022/11/01 07:50:47;;;;;;;1.47;1.00;;;;;;;;;;5011919;28;20207;-77
2022/11/01 07:53:14;;;;;;;0.83;0.83;;;;;;;;;;4995460;28;20179;-77
2022/11/01 07:55:39;;;;;;;1.00;0.73;;;;;;;;;;5012340;28;20181;-76
2022/11/01 07:58:05;;;;;;;1.10;1.00;;;;;;;;;;4995187;28;20262;-77
2022/11/01 08:00:31;;;;;;;0.80;0.80;;;;;;;;;;4992633;28;20187;-77
2022/11/01 08:03:03;;;;;;;1.53;1.03;;;;;;;;;;4994460;28;20179;-77
2022/11/01 08:05:29;;;;;;;1.43;1.03;;;;;;;;;;4993458;28;20184;-77
2022/11/01 08:07:55;;;;;;;3.77;1.60;;;;;;;;;;4995628;28;20287;-77
2022/11/01 08:10:21;;;;;;;1.57;1.30;;;;;;;;;;4995416;28;20210;-77
2022/11/01 08:12:46;;;;;;;1.30;1.20;;;;;;;;;;5001404;28;20187;-77
2022/11/01 08:15:11;;;;;;;1.57;1.13;;;;;;;;;;4989825;28;20234;-77
2022/11/01 08:17:37;;;;;;;2.87;1.50;;;;;;;;;;5020963;28;20182;-77
2022/11/01 08:20:02;;;;;;;3.17;1.83;;;;;;;;;;4995014;28;20210;-77
2022/11/01 08:22:28;;;;;;;2.90;1.43;;;;;;;;;;4998005;28;20239;-78
2022/11/01 08:24:53;;;;;;;1.83;1.33;;;;;;;;;;5000671;28;20189;-77
2022/11/01 08:27:18;;;;;;;2.30;1.40;;;;;;;;;;4998095;28;20257;-77
2022/11/01 08:29:43;;;;;;;2.70;1.47;;;;;;;;;;5005145;28;20272;-77
2022/11/01 08:32:09;;;;;;;1.77;1.13;;;;;;;;;;4996636;28;20206;-78
2022/11/01 08:34:34;;;;;;;1.63;1.20;;;;;;;;;;5015969;28;20252;-77
2022/11/01 08:36:59;;;;;;;2.07;1.30;;;;;;;;;;5009559;28;20268;-77
2022/11/01 08:39:25;;;;;;;1.90;1.30;;;;;;;;;;5019427;28;20231;-77
2022/11/01 08:41:51;;;;;;;3.93;1.70;;;;;;;;;;5033485;28;20189;-77
2022/11/01 08:44:17;;;;;;;2.27;1.23;;;;;;;;;;5014790;28;20185;-77
2022/11/01 08:46:42;;;;;;;1.07;1.00;;;;;;;;;;5033079;28;20224;-77
2022/11/01 08:49:11;;;;;;;3.57;1.37;;;;;;;;;;5020521;28;20180;-77
2022/11/01 08:51:36;;;;;;;2.03;1.37;;;;;;;;;;5032674;28;20193;-77
2022/11/01 08:54:02;;;;;;;1.67;1.47;;;;;;;;;;5019164;28;20178;-77
2022/11/01 08:56:27;;;;;;;1.20;1.10;;;;;;;;;;5008604;28;20185;-77
2022/11/01 08:58:53;;;;;;;1.37;1.20;;;;;;;;;;5017169;28;20174;-77
2022/11/01 09:01:19;;;;;;;1.37;1.13;;;;;;;;;;5038392;28;20192;-78
2022/11/01 09:03:44;;;;;;;1.30;1.20;;;;;;;;;;5015353;28;20183;-77
2022/11/01 09:06:09;;;;;;;1.37;1.27;;;;;;;;;;5010982;28;20370;-78
2022/11/01 09:08:34;;;;;;;2.33;1.30;;;;;;;;;;5017011;28;20182;-77
2022/11/01 09:11:00;;;;;;;1.57;1.13;;;;;;;;;;5014564;28;20208;-77
2022/11/01 09:13:25;;;;;;;1.27;1.13;;;;;;;;;;5029563;28;20244;-77
2022/11/01 09:15:51;;;;;;;1.43;1.30;;;;;;;;;;5014868;28;20179;-77
2022/11/01 09:18:16;;;;;;;2.00;1.43;;;;;;;;;;5021292;28;20181;-77
2022/11/01 09:20:41;;;;;;;2.43;1.30;;;;;;;;;;5008014;28;20182;-77
2022/11/01 09:23:06;;;;;;;2.77;1.00;;;;;;;;;;5012486;28;20248;-77
2022/11/01 09:25:31;;;;;;;1.23;1.10;;;;;;;;;;5007380;28;20189;-77
2022/11/01 09:27:57;;;;;;;2.63;1.13;;;;;;;;;;5037544;28;20210;-77
2022/11/01 09:30:22;;;;;;;2.17;1.97;;;;;;;;;;5016141;28;20203;-77
2022/11/01 09:32:48;;;;;;;2.77;1.20;;;;;;;;;;5004198;28;20179;-77
2022/11/01 09:35:13;;;;;;;3.10;1.40;;;;;;;;;;5042083;28;20267;-77
2022/11/01 09:37:38;;;;;;;1.57;1.47;;;;;;;;;;5034062;28;20182;-77
2022/11/01 09:40:04;;;;;;;2.67;1.27;;;;;;;;;;5017003;28;20214;-77
2022/11/01 09:42:34;;;;;;;2.97;1.40;;;;;;;;;;5016270;28;20175;-77
2022/11/01 09:45:03;;;;;;;1.73;1.63;;;;;;;;;;5014966;28;20190;-77
2022/11/01 09:47:29;;;;;;;2.00;1.50;;;;;;;;;;5003072;28;20187;-77
2022/11/01 09:50:00;;;;;;;4.33;1.80;;;;;;;;;;5028926;28;20278;-77
2022/11/01 09:52:25;;;;;;;1.73;1.33;;;;;;;;;;5031762;28;20179;-77
2022/11/01 09:54:51;;;;;;;1.63;1.53;;;;;;;;;;5028372;28;20251;-77
2022/11/01 09:57:19;;;;;;;3.13;1.70;;;;;;;;;;5013855;28;20178;-77
2022/11/01 09:59:52;;;;;;;2.30;1.60;;;;;;;;;;5016575;28;20207;-77
2022/11/01 10:02:25;;;;;;;1.30;1.20;;;;;;;;;;5022969;28;20203;-77
2022/11/01 10:04:53;;;;;;;4.00;1.57;;;;;;;;;;5013507;28;20191;-77
2022/11/01 10:07:21;;;;;;;4.67;1.77;;;;;;;;;;5017154;28;20182;-77
2022/11/01 10:09:53;;;;;;;2.63;1.33;;;;;;;;;;5012160;28;20405;-78
2022/11/01 10:12:18;;;;;;;2.17;1.60;;;;;;;;;;5011673;28;20179;-77
2022/11/01 10:14:55;;;;;;;3.77;2.17;;;;;;;;;;5012961;28;20179;-77
2022/11/01 10:17:30;;;;;;;3.33;1.70;;;;;;;;;;5013680;28;20183;-77
2022/11/01 10:19:55;;;;;;;5.40;2.20;;;;;;;;;;5020293;28;20181;-77
2022/11/01 10:22:28;;;;;;;2.77;1.90;;;;;;;;;;5017082;28;20197;-78
2022/11/01 10:25:00;;;;;;;6.07;2.00;;;;;;;;;;5014259;28;20187;-78
2022/11/01 10:27:25;;;;;;;4.23;1.90;;;;;;;;;;5013071;28;20191;-77
2022/11/01 10:30:03;;;;;;;2.97;1.70;;;;;;;;;;5008524;28;20199;-77
2022/11/01 10:32:28;;;;;;;2.53;1.80;;;;;;;;;;5035152;28;20248;-78
2022/11/01 10:34:56;;;;;;;1.90;1.70;;;;;;;;;;5013733;28;20329;-77
2022/11/01 10:37:33;;;;;;;3.60;1.50;;;;;;;;;;5021985;28;20260;-77
2022/11/01 10:40:00;;;;;;;6.40;2.13;;;;;;;;;;5006381;28;20179;-77
2022/11/01 10:42:27;;;;;;;1.50;1.30;;;;;;;;;;5012428;28;20187;-78
2022/11/01 10:44:54;;;;;;;2.10;1.60;;;;;;;;;;5017619;28;20171;-77
2022/11/01 10:47:20;;;;;;;2.43;1.50;;;;;;;;;;5004977;28;20274;-77
2022/11/01 10:49:53;;;;;;;3.57;1.60;;;;;;;;;;5011601;28;20221;-77
2022/11/01 10:52:21;;;;;;;2.40;1.60;;;;;;;;;;5014957;28;20251;-77
2022/11/01 10:54:49;;;;;;;4.10;2.03;;;;;;;;;;5013553;28;20175;-77
2022/11/01 10:57:37;;;;;;;3.27;2.07;;;;;;;;;;5012925;28;20274;-77
2022/11/01 11:00:05;;;;;;;2.13;1.60;;;;;;;;;;5004898;28;20263;-77
2022/11/01 11:02:41;;;;;;;3.77;1.90;;;;;;;;;;5025986;28;20180;-77
2022/11/01 11:05:12;;;;;;;2.40;1.53;;;;;;;;;;5007663;28;20237;-77
2022/11/01 11:07:37;;;;;;;4.07;1.97;;;;;;;;;;5013498;28;20214;-77
2022/11/01 11:10:03;;;;;;;2.17;1.50;;;;;;;;;;5027964;28;20195;-77
2022/11/01 11:12:29;;;;;;;3.43;1.80;;;;;;;;;;5033871;28;20407;-77
2022/11/01 11:14:56;;;;;;;4.20;1.97;;;;;;;;;;5008909;28;20175;-77
2022/11/01 11:17:23;;;;;;;1.77;1.47;;;;;;;;;;5013918;28;20351;-77
2022/11/01 11:19:51;;;;;;;2.53;1.63;;;;;;;;;;5011898;28;20174;-77
2022/11/01 11:22:19;;;;;;;2.17;1.40;;;;;;;;;;5013706;28;20183;-77
2022/11/01 11:24:44;;;;;;;2.43;1.87;;;;;;;;;;5012748;28;20267;-77
2022/11/01 11:27:28;;;;;;;2.63;1.80;;;;;;;;;;5034738;28;20262;-77
2022/11/01 11:29:56;;;;;;;2.93;1.60;;;;;;;;;;5028865;28;20296;-77
2022/11/01 11:32:30;;;;;;;2.67;1.67;;;;;;;;;;5033825;28;20171;-77
2022/11/01 11:34:57;;;;;;;2.40;1.60;;;;;;;;;;5011648;28;20235;-77
2022/11/01 11:37:23;;;;;;;3.63;1.60;;;;;;;;;;5014300;28;20202;-77
2022/11/01 11:40:21;;;;;;;3.53;1.60;;;;;;;;;;5011161;28;20180;-77
2022/11/01 11:42:51;;;;;;;3.90;1.90;;;;;;;;;;4977453;28;20204;-77
2022/11/01 11:45:19;;;;;;;1.60;1.37;;;;;;;;;;5027088;28;20183;-77
2022/11/01 11:47:46;;;;;;;1.50;1.40;;;;;;;;;;5032985;28;20179;-78
2022/11/01 11:50:15;;;;;;;2.37;1.87;;;;;;;;;;5013100;28;20199;-78
2022/11/01 11:52:41;;;;;;;2.50;2.07;;;;;;;;;;5012249;28;20176;-77
2022/11/01 11:55:21;;;;;;;7.77;2.13;;;;;;;;;;5014496;28;20181;-77
2022/11/01 11:57:51;;;;;;;4.83;1.73;;;;;;;;;;5031009;28;20176;-77
2022/11/01 12:00:21;;;;;;;2.53;1.93;;;;;;;;;;5014438;28;20198;-78
2022/11/01 12:02:46;;;;;;;3.93;1.83;;;;;;;;;;5040491;28;20191;-77
2022/11/01 12:05:16;;;;;;;2.63;1.77;;;;;;;;;;5013235;28;20211;-77
2022/11/01 12:07:45;;;;;;;3.50;1.70;;;;;;;;;;5025230;28;20172;-77
2022/11/01 12:10:29;;;;;;;3.73;1.70;;;;;;;;;;5016459;28;20297;-77
2022/11/01 12:12:55;;;;;;;3.23;2.23;;;;;;;;;;5016509;28;20191;-77
2022/11/01 12:15:25;;;;;;;4.13;1.80;;;;;;;;;;5034006;28;20176;-77
2022/11/01 12:17:51;;;;;;;4.27;2.13;;;;;;;;;;5032923;28;20183;-77
2022/11/01 12:20:18;;;;;;;4.50;2.00;;;;;;;;;;5017737;28;20190;-77
2022/11/01 12:22:52;;;;;;;4.37;1.63;;;;;;;;;;5015614;28;20171;-77
2022/11/01 12:25:22;;;;;;;4.00;1.60;;;;;;;;;;5013538;28;20193;-77
2022/11/01 12:27:51;;;;;;;1.93;1.53;;;;;;;;;;5017124;28;20194;-77
2022/11/01 12:30:18;;;;;;;3.10;1.83;;;;;;;;;;5016110;28;20266;-78
2022/11/01 12:32:49;;;;;;;3.70;1.50;;;;;;;;;;5018497;28;20184;-77
2022/11/01 12:35:28;;;;;;;2.43;1.60;;;;;;;;;;5007171;28;20227;-77
2022/11/01 12:38:12;;;;;;;3.80;1.90;;;;;;;;;;4999475;28;20179;-78
2022/11/01 12:40:41;;;;;;;4.00;1.70;;;;;;;;;;5022976;28;20175;-77
2022/11/01 12:43:25;;;;;;;6.70;2.03;;;;;;;;;;4998577;28;20243;-77
2022/11/01 12:46:00;;;;;;;2.03;1.60;;;;;;;;;;4996168;28;20183;-78
2022/11/01 12:48:29;;;;;;;3.17;1.57;;;;;;;;;;4987569;28;20184;-77
2022/11/01 12:50:59;;;;;;;3.63;1.70;;;;;;;;;;4992557;28;20296;-78
2022/11/01 12:53:31;;;;;;;1.87;1.70;;;;;;;;;;4994726;28;20187;-78
2022/11/01 12:55:57;;;;;;;3.13;1.40;;;;;;;;;;5005230;28;20188;-77
2022/11/01 12:58:23;;;;;;;2.47;1.70;;;;;;;;;;4993230;28;20198;-77
2022/11/01 13:00:54;;;;;;;3.90;1.83;;;;;;;;;;4997029;28;20191;-78
2022/11/01 13:03:25;;;;;;;4.27;1.70;;;;;;;;;;4996318;28;20214;-78
2022/11/01 13:05:50;;;;;;;3.03;1.60;;;;;;;;;;4994933;28;20180;-78
2022/11/01 13:08:28;;;;;;;2.20;1.60;;;;;;;;;;4996762;28;20196;-78
2022/11/01 13:10:54;;;;;;;2.40;1.70;;;;;;;;;;4995615;28;20219;-77
2022/11/01 13:13:22;;;;;;;3.27;1.53;;;;;;;;;;4998210;28;20218;-77
2022/11/01 13:15:59;;;;;;;3.47;2.00;;;;;;;;;;4998354;28;20219;-77
2022/11/01 13:18:32;;;;;;;4.30;2.07;;;;;;;;;;4993993;28;20186;-77
2022/11/01 13:21:00;;;;;;;1.63;1.47;;;;;;;;;;5014709;28;20289;-77
2022/11/01 13:23:42;;;;;;;2.97;1.43;;;;;;;;;;5022254;28;20187;-77
2022/11/01 13:26:15;;;;;;;3.43;1.90;;;;;;;;;;4995496;28;20218;-77
2022/11/01 13:28:48;;;;;;;2.80;1.40;;;;;;;;;;5017041;28;20203;-77
2022/11/01 13:31:19;;;;;;;3.57;1.90;;;;;;;;;;4992875;28;20316;-78
2022/11/01 13:33:51;;;;;;;4.40;1.80;;;;;;;;;;5001092;28;20220;-78
2022/11/01 13:36:19;;;;;;;3.90;1.87;;;;;;;;;;5014687;28;20189;-78
2022/11/01 13:38:47;;;;;;;2.53;1.70;;;;;;;;;;5016598;28;20183;-78
2022/11/01 13:41:20;;;;;;;2.40;1.40;;;;;;;;;;5013379;28;20234;-78
2022/11/01 13:43:53;;;;;;;2.57;1.70;;;;;;;;;;5015524;28;20325;-78
2022/11/01 13:46:24;;;;;;;2.20;1.60;;;;;;;;;;5014025;28;20220;-78
2022/11/01 13:48:52;;;;;;;2.87;1.60;;;;;;;;;;5006281;28;20335;-78
2022/11/01 13:51:54;;;;;;;3.83;1.87;;;;;;;;;;5012953;28;20233;-78
2022/11/01 13:54:37;;;;;;;2.60;1.43;;;;;;;;;;4974522;28;20190;-77
2022/11/01 13:57:07;;;;;;;3.50;1.80;;;;;;;;;;5008800;28;20184;-78
2022/11/01 13:59:36;;;;;;;4.67;1.90;;;;;;;;;;5010775;28;20207;-78
2022/11/01 14:02:20;;;;;;;3.40;1.90;;;;;;;;;;5014042;28;20186;-77
2022/11/01 14:05:04;;;;;;;3.50;2.17;;;;;;;;;;5015409;28;20220;-78
2022/11/01 14:07:31;;;;;;;4.50;1.60;;;;;;;;;;5015773;28;20171;-77
2022/11/01 14:09:56;;;;;;;5.77;2.00;;;;;;;;;;5013800;28;20221;-78
2022/11/01 14:12:30;;;;;;;2.80;1.60;;;;;;;;;;5012477;28;20180;-78
2022/11/01 14:15:14;;;;;;;6.23;2.43;;;;;;;;;;5009111;28;20744;-78
2022/11/01 14:17:45;;;;;;;3.53;1.77;;;;;;;;;;5013797;28;20175;-78
2022/11/01 14:20:13;;;;;;;2.77;1.90;;;;;;;;;;5019136;28;20220;-77
2022/11/01 14:22:40;;;;;;;3.47;1.73;;;;;;;;;;5015543;28;20188;-77
2022/11/01 14:25:12;;;;;;;2.43;1.70;;;;;;;;;;5034608;28;20178;-77
2022/11/01 14:27:39;;;;;;;3.80;2.53;;;;;;;;;;5014470;28;20278;-77
2022/11/01 14:30:20;;;;;;;4.67;1.80;;;;;;;;;;5037313;28;20288;-78
2022/11/01 14:32:49;;;;;;;2.23;1.50;;;;;;;;;;5005190;28;20182;-78
2022/11/01 14:35:23;;;;;;;3.97;1.90;;;;;;;;;;5009680;28;20234;-77
2022/11/01 14:37:51;;;;;;;2.87;1.83;;;;;;;;;;5033932;28;20184;-77
2022/11/01 14:40:25;;;;;;;3.30;1.80;;;;;;;;;;5011640;28;20198;-77
2022/11/01 14:42:52;;;;;;;2.97;1.50;;;;;;;;;;5015665;28;20192;-77
2022/11/01 14:45:23;;;;;;;2.23;1.83;;;;;;;;;;5018693;28;20189;-77
2022/11/01 14:47:49;;;;;;;1.50;1.33;;;;;;;;;;5012962;28;20174;-77
2022/11/01 14:50:22;;;;;;;2.40;1.80;;;;;;;;;;5034228;28;20220;-77
2022/11/01 14:52:52;;;;;;;7.53;1.90;;;;;;;;;;5017361;28;20185;-77
2022/11/01 14:55:21;;;;;;;5.63;2.07;;;;;;;;;;5038015;28;20188;-77